createdAt,value
2017-04-20T00:00:06.158Z,0
2017-04-20T00:01:06.728Z,0
2017-04-20T00:02:07.297Z,0
2017-04-20T00:03:07.867Z,0
2017-04-20T00:04:08.435Z,0
2017-04-20T00:05:09.016Z,0
2017-04-20T00:06:09.585Z,0
2017-04-20T00:07:10.154Z,0
2017-04-20T00:08:10.725Z,0
2017-04-20T00:09:11.293Z,0
2017-04-20T00:10:12.064Z,0
2017-04-20T00:11:12.630Z,0
2017-04-20T00:12:13.304Z,0
2017-04-20T00:13:13.873Z,0
2017-04-20T00:14:14.441Z,0
2017-04-20T00:15:15.008Z,0
2017-04-20T00:16:15.578Z,0
2017-04-20T00:17:16.159Z,0
2017-04-20T00:18:16.729Z,0
2017-04-20T00:19:17.299Z,0
2017-04-20T00:20:17.881Z,0
2017-04-20T00:21:18.450Z,0
2017-04-20T00:22:19.063Z,0
2017-04-20T00:23:19.646Z,0
2017-04-20T00:24:20.237Z,0
2017-04-20T00:25:20.985Z,0
2017-04-20T00:26:21.555Z,0
2017-04-20T00:27:22.125Z,0
2017-04-20T00:28:22.695Z,0
2017-04-20T00:29:23.264Z,0
2017-04-20T00:30:23.832Z,0
2017-04-20T00:31:24.403Z,0
2017-04-20T00:32:24.972Z,0
2017-04-20T00:33:25.542Z,0
2017-04-20T00:34:26.126Z,0
2017-04-20T00:35:26.693Z,0
2017-04-20T00:36:27.261Z,0
2017-04-20T00:37:27.830Z,0
2017-04-20T00:38:28.412Z,0
2017-04-20T00:39:28.982Z,0
2017-04-20T00:40:29.751Z,0
2017-04-20T00:41:30.383Z,0
2017-04-20T00:42:30.950Z,0
2017-04-20T00:43:31.518Z,0
2017-04-20T00:44:32.086Z,0
2017-04-20T00:45:32.654Z,0
2017-04-20T00:46:33.222Z,0
2017-04-20T00:47:33.791Z,0
2017-04-20T00:48:34.359Z,0
2017-04-20T00:49:34.928Z,0
2017-04-20T00:50:35.509Z,0
2017-04-20T00:51:36.077Z,0
2017-04-20T00:52:36.645Z,0
2017-04-20T00:53:37.232Z,0
2017-04-20T00:54:37.814Z,0
2017-04-20T00:55:38.582Z,0
2017-04-20T00:56:39.150Z,0
2017-04-20T00:57:39.719Z,0
2017-04-20T00:58:40.289Z,0
2017-04-20T00:59:40.856Z,0
2017-04-20T01:00:41.427Z,0
2017-04-20T01:01:41.996Z,0
2017-04-20T01:02:42.564Z,0
2017-04-20T01:03:43.130Z,0
2017-04-20T01:04:43.704Z,0
2017-04-20T01:05:44.271Z,0
2017-04-20T01:06:44.838Z,0
2017-04-20T01:07:45.407Z,0
2017-04-20T01:08:45.977Z,0
2017-04-20T01:09:46.556Z,0
2017-04-20T01:10:47.323Z,0
2017-04-20T01:11:47.897Z,0
2017-04-20T01:12:48.463Z,0
2017-04-20T01:13:49.045Z,0
2017-04-20T01:14:49.614Z,0
2017-04-20T01:15:50.185Z,0
2017-04-20T01:16:50.752Z,0
2017-04-20T01:17:51.320Z,0
2017-04-20T01:18:51.889Z,0
2017-04-20T01:19:52.459Z,0
2017-04-20T01:20:53.029Z,0
2017-04-20T01:21:53.597Z,0
2017-04-20T01:22:54.169Z,0
2017-04-20T01:23:54.740Z,0
2017-04-20T01:24:55.323Z,0
2017-04-20T01:25:56.090Z,0
2017-04-20T01:26:56.658Z,0
2017-04-20T01:27:57.227Z,0
2017-04-20T01:28:57.796Z,0
2017-04-20T01:29:58.365Z,0
2017-04-20T01:30:58.934Z,0
2017-04-20T01:31:59.504Z,0
2017-04-20T01:33:00.074Z,0
2017-04-20T01:34:00.643Z,0
2017-04-20T01:35:01.225Z,0
2017-04-20T01:36:01.796Z,0
2017-04-20T01:37:02.366Z,0
2017-04-20T01:38:02.947Z,0
2017-04-20T01:39:03.518Z,0
2017-04-20T01:40:04.102Z,0
2017-04-20T01:41:04.869Z,0
2017-04-20T01:42:05.448Z,0
2017-04-20T01:43:06.017Z,0
2017-04-20T01:44:06.597Z,0
2017-04-20T01:45:07.167Z,0
2017-04-20T01:46:07.750Z,0
2017-04-20T01:47:08.319Z,0
2017-04-20T01:48:08.888Z,0
2017-04-20T01:49:09.457Z,0
2017-04-20T01:50:10.027Z,0
2017-04-20T01:51:10.594Z,0
2017-04-20T01:52:11.164Z,0
2017-04-20T01:53:11.731Z,0
2017-04-20T01:54:12.298Z,0
2017-04-20T01:55:12.866Z,0
2017-04-20T01:56:13.434Z,0
2017-04-20T01:57:14.000Z,0
2017-04-20T01:58:14.567Z,0
2017-04-20T01:59:15.135Z,0
2017-04-20T02:00:15.702Z,0
2017-04-20T02:01:16.270Z,0
2017-04-20T02:02:16.841Z,0
2017-04-20T02:03:17.411Z,0
2017-04-20T02:04:17.982Z,0
2017-04-20T02:05:18.552Z,0
2017-04-20T02:06:19.320Z,0
2017-04-20T02:07:19.888Z,0
2017-04-20T02:08:20.457Z,0
2017-04-20T02:09:21.025Z,0
2017-04-20T02:10:21.593Z,0
2017-04-20T02:11:22.166Z,0
2017-04-20T02:12:22.733Z,0
2017-04-20T02:13:23.303Z,0
2017-04-20T02:14:23.872Z,0
2017-04-20T02:15:24.441Z,0
2017-04-20T02:16:25.008Z,0
2017-04-20T02:17:25.576Z,0
2017-04-20T02:18:26.143Z,0
2017-04-20T02:19:26.712Z,0
2017-04-20T02:20:27.301Z,0
2017-04-20T02:21:28.067Z,0
2017-04-20T02:22:28.639Z,0
2017-04-20T02:23:29.208Z,0
2017-04-20T02:24:29.792Z,0
2017-04-20T02:25:30.362Z,0
2017-04-20T02:26:30.930Z,0
2017-04-20T02:27:31.500Z,0
2017-04-20T02:28:32.067Z,0
2017-04-20T02:29:32.636Z,0
2017-04-20T02:30:33.206Z,0
2017-04-20T02:31:33.788Z,0
2017-04-20T02:32:34.357Z,0
2017-04-20T02:33:34.925Z,0
2017-04-20T02:34:35.507Z,0
2017-04-20T02:35:36.079Z,0
2017-04-20T02:36:36.646Z,0
2017-04-20T02:37:37.212Z,0
2017-04-20T02:38:37.778Z,0
2017-04-20T02:39:38.348Z,0
2017-04-20T02:40:38.915Z,0
2017-04-20T02:41:39.483Z,0
2017-04-20T02:42:40.050Z,0
2017-04-20T02:43:40.635Z,0
2017-04-20T02:44:41.204Z,0
2017-04-20T02:45:41.769Z,0
2017-04-20T02:46:42.538Z,0
2017-04-20T02:47:43.108Z,0
2017-04-20T02:48:43.677Z,0
2017-04-20T02:49:44.262Z,0
2017-04-20T02:50:44.829Z,0
2017-04-20T02:51:45.399Z,0
2017-04-20T02:52:45.968Z,0
2017-04-20T02:53:46.536Z,0
2017-04-20T02:54:47.105Z,0
2017-04-20T02:55:47.672Z,0
2017-04-20T02:56:48.244Z,0
2017-04-20T02:57:48.808Z,0
2017-04-20T02:58:49.391Z,0
2017-04-20T02:59:49.958Z,0
2017-04-20T03:00:50.528Z,0
2017-04-20T03:01:51.295Z,0
2017-04-20T03:02:51.865Z,0
2017-04-20T03:03:52.434Z,0
2017-04-20T03:04:53.004Z,0
2017-04-20T03:05:53.574Z,0
2017-04-20T03:06:54.141Z,0
2017-04-20T03:07:54.713Z,0
2017-04-20T03:08:55.276Z,0
2017-04-20T03:09:55.843Z,0
2017-04-20T03:10:56.412Z,0
2017-04-20T03:11:56.982Z,0
2017-04-20T03:12:57.553Z,0
2017-04-20T03:13:58.121Z,0
2017-04-20T03:14:58.689Z,0
2017-04-20T03:15:59.260Z,0
2017-04-20T03:17:00.026Z,0
2017-04-20T03:18:00.593Z,0
2017-04-20T03:19:01.162Z,0
2017-04-20T03:20:01.731Z,0
2017-04-20T03:21:02.299Z,0
2017-04-20T03:22:02.870Z,0
2017-04-20T03:23:03.439Z,0
2017-04-20T03:24:04.010Z,0
2017-04-20T03:25:04.578Z,0
2017-04-20T03:26:05.273Z,0
2017-04-20T03:27:05.843Z,0
2017-04-20T03:28:06.411Z,0
2017-04-20T03:29:06.981Z,0
2017-04-20T03:30:07.549Z,0
2017-04-20T03:31:08.119Z,0
2017-04-20T03:32:08.889Z,0
2017-04-20T03:33:09.460Z,0
2017-04-20T03:34:10.028Z,0
2017-04-20T03:35:10.599Z,0
2017-04-20T03:36:11.162Z,0
2017-04-20T03:37:11.747Z,0
2017-04-20T03:38:12.315Z,0
2017-04-20T03:39:12.882Z,0
2017-04-20T03:40:13.451Z,0
2017-04-20T03:41:14.019Z,0
2017-04-20T03:42:14.609Z,0
2017-04-20T03:43:15.159Z,0
2017-04-20T03:44:15.738Z,0
2017-04-20T03:45:16.313Z,0
2017-04-20T03:46:16.883Z,0
2017-04-20T03:47:17.454Z,0
2017-04-20T03:48:18.024Z,0
2017-04-20T03:49:18.598Z,0
2017-04-20T03:50:19.161Z,0
2017-04-20T03:51:19.732Z,0
2017-04-20T03:52:20.298Z,0
2017-04-20T03:53:20.869Z,0
2017-04-20T03:54:21.439Z,0
2017-04-20T03:55:22.008Z,0
2017-04-20T03:56:22.579Z,0
2017-04-20T03:57:23.148Z,0
2017-04-20T03:58:23.717Z,0
2017-04-20T03:59:24.285Z,0
2017-04-20T04:00:24.854Z,0
2017-04-20T04:01:25.424Z,0
2017-04-20T04:02:25.995Z,0
2017-04-20T04:03:26.565Z,4
2017-04-20T04:04:27.135Z,0
2017-04-20T04:05:27.704Z,0
2017-04-20T04:06:28.272Z,0
2017-04-20T04:07:28.858Z,4
2017-04-20T04:08:29.424Z,4
2017-04-20T04:09:29.993Z,0
2017-04-20T04:10:30.561Z,4
2017-04-20T04:11:31.130Z,4
2017-04-20T04:12:31.699Z,4
2017-04-20T04:13:32.270Z,4
2017-04-20T04:14:32.838Z,8
2017-04-20T04:15:33.409Z,4
2017-04-20T04:16:33.979Z,8
2017-04-20T04:17:34.551Z,8
2017-04-20T04:18:35.117Z,12
2017-04-20T04:19:35.687Z,8
2017-04-20T04:20:36.258Z,12
2017-04-20T04:21:36.828Z,12
2017-04-20T04:22:37.399Z,12
2017-04-20T04:23:37.969Z,16
2017-04-20T04:24:38.553Z,16
2017-04-20T04:25:39.123Z,20
2017-04-20T04:26:39.691Z,24
2017-04-20T04:27:40.261Z,24
2017-04-20T04:28:40.844Z,24
2017-04-20T04:29:41.415Z,24
2017-04-20T04:30:41.987Z,28
2017-04-20T04:31:42.569Z,32
2017-04-20T04:32:43.141Z,32
2017-04-20T04:33:43.711Z,40
2017-04-20T04:34:44.284Z,40
2017-04-20T04:35:44.854Z,40
2017-04-20T04:36:45.422Z,44
2017-04-20T04:37:45.992Z,48
2017-04-20T04:38:46.562Z,52
2017-04-20T04:39:47.136Z,56
2017-04-20T04:40:47.720Z,56
2017-04-20T04:41:48.290Z,60
2017-04-20T04:42:48.860Z,64
2017-04-20T04:43:49.430Z,68
2017-04-20T04:44:49.999Z,72
2017-04-20T04:45:50.581Z,76
2017-04-20T04:46:51.152Z,80
2017-04-20T04:47:51.723Z,84
2017-04-20T04:48:52.292Z,88
2017-04-20T04:49:52.863Z,92
2017-04-20T04:50:53.433Z,96
2017-04-20T04:51:54.004Z,104
2017-04-20T04:52:54.575Z,104
2017-04-20T04:53:55.147Z,108
2017-04-20T04:54:55.718Z,116
2017-04-20T04:55:56.290Z,120
2017-04-20T04:56:56.874Z,128
2017-04-20T04:57:57.445Z,132
2017-04-20T04:58:58.057Z,140
2017-04-20T04:59:58.629Z,144
2017-04-20T05:00:59.200Z,152
2017-04-20T05:01:59.773Z,156
2017-04-20T05:03:00.344Z,164
2017-04-20T05:04:00.933Z,168
2017-04-20T05:05:01.501Z,172
2017-04-20T05:06:02.075Z,176
2017-04-20T05:07:02.645Z,180
2017-04-20T05:08:03.218Z,188
2017-04-20T05:09:03.789Z,192
2017-04-20T05:10:04.371Z,196
2017-04-20T05:11:04.941Z,200
2017-04-20T05:12:05.513Z,208
2017-04-20T05:13:06.082Z,212
2017-04-20T05:14:06.655Z,216
2017-04-20T05:15:07.224Z,220
2017-04-20T05:16:07.810Z,228
2017-04-20T05:17:08.381Z,228
2017-04-20T05:18:08.952Z,236
2017-04-20T05:19:09.524Z,244
2017-04-20T05:20:10.095Z,252
2017-04-20T05:21:10.666Z,252
2017-04-20T05:22:11.237Z,252
2017-04-20T05:23:11.811Z,252
2017-04-20T05:24:12.382Z,256
2017-04-20T05:25:12.953Z,268
2017-04-20T05:26:13.524Z,280
2017-04-20T05:27:14.097Z,288
2017-04-20T05:28:14.666Z,292
2017-04-20T05:29:15.240Z,296
2017-04-20T05:30:15.825Z,300
2017-04-20T05:31:16.399Z,304
2017-04-20T05:32:16.985Z,312
2017-04-20T05:33:17.555Z,312
2017-04-20T05:34:18.126Z,320
2017-04-20T05:35:18.699Z,324
2017-04-20T05:36:19.270Z,320
2017-04-20T05:37:19.843Z,324
2017-04-20T05:38:20.414Z,328
2017-04-20T05:39:20.985Z,328
2017-04-20T05:40:21.558Z,328
2017-04-20T05:41:22.128Z,332
2017-04-20T05:42:22.701Z,332
2017-04-20T05:43:23.273Z,332
2017-04-20T05:44:23.844Z,344
2017-04-20T05:45:24.417Z,352
2017-04-20T05:46:24.988Z,352
2017-04-20T05:47:25.559Z,356
2017-04-20T05:48:26.132Z,364
2017-04-20T05:49:26.704Z,372
2017-04-20T05:50:27.277Z,368
2017-04-20T05:51:27.848Z,376
2017-04-20T05:52:28.418Z,380
2017-04-20T05:53:28.992Z,388
2017-04-20T05:54:29.565Z,392
2017-04-20T05:55:30.136Z,396
2017-04-20T05:56:30.708Z,404
2017-04-20T05:57:31.280Z,412
2017-04-20T05:58:31.854Z,420
2017-04-20T05:59:32.424Z,428
2017-04-20T06:00:32.996Z,424
2017-04-20T06:01:33.566Z,424
2017-04-20T06:02:34.152Z,436
2017-04-20T06:03:34.721Z,448
2017-04-20T06:04:35.296Z,428
2017-04-20T06:05:35.868Z,440
2017-04-20T06:06:36.441Z,456
2017-04-20T06:07:37.013Z,456
2017-04-20T06:08:37.585Z,468
2017-04-20T06:09:38.158Z,472
2017-04-20T06:10:38.730Z,468
2017-04-20T06:11:39.302Z,476
2017-04-20T06:12:39.877Z,460
2017-04-20T06:13:40.449Z,472
2017-04-20T06:14:41.023Z,472
2017-04-20T06:15:41.595Z,464
2017-04-20T06:16:42.166Z,484
2017-04-20T06:17:42.740Z,476
2017-04-20T06:18:43.313Z,480
2017-04-20T06:19:43.901Z,468
2017-04-20T06:20:44.474Z,496
2017-04-20T06:21:45.045Z,500
2017-04-20T06:22:45.619Z,484
2017-04-20T06:23:46.194Z,500
2017-04-20T06:24:46.767Z,504
2017-04-20T06:25:47.338Z,512
2017-04-20T06:26:47.912Z,512
2017-04-20T06:27:48.484Z,516
2017-04-20T06:28:49.058Z,512
2017-04-20T06:29:49.631Z,524
2017-04-20T06:30:50.202Z,492
2017-04-20T06:31:50.776Z,512
2017-04-20T06:32:51.349Z,524
2017-04-20T06:33:51.922Z,540
2017-04-20T06:34:52.494Z,536
2017-04-20T06:35:53.068Z,540
2017-04-20T06:36:53.643Z,552
2017-04-20T06:37:54.215Z,496
2017-04-20T06:38:54.787Z,516
2017-04-20T06:39:55.359Z,504
2017-04-20T06:40:55.935Z,500
2017-04-20T06:41:56.526Z,508
2017-04-20T06:42:57.097Z,524
2017-04-20T06:43:57.668Z,540
2017-04-20T06:44:58.242Z,556
2017-04-20T06:45:58.815Z,568
2017-04-20T06:46:59.390Z,576
2017-04-20T06:47:59.966Z,580
2017-04-20T06:49:00.541Z,588
2017-04-20T06:50:01.113Z,596
2017-04-20T06:51:01.686Z,600
2017-04-20T06:52:02.258Z,584
2017-04-20T06:53:02.835Z,564
2017-04-20T06:54:03.408Z,560
2017-04-20T06:55:03.983Z,540
2017-04-20T06:56:04.557Z,544
2017-04-20T06:57:05.130Z,544
2017-04-20T06:58:05.704Z,540
2017-04-20T06:59:06.292Z,544
2017-04-20T07:00:06.864Z,580
2017-04-20T07:01:07.439Z,576
2017-04-20T07:02:08.014Z,568
2017-04-20T07:03:08.587Z,588
2017-04-20T07:04:09.162Z,608
2017-04-20T07:05:09.736Z,612
2017-04-20T07:06:10.312Z,616
2017-04-20T07:07:10.888Z,640
2017-04-20T07:08:11.462Z,656
2017-04-20T07:09:12.036Z,656
2017-04-20T07:10:12.611Z,664
2017-04-20T07:11:13.186Z,668
2017-04-20T07:12:13.760Z,668
2017-04-20T07:13:14.336Z,676
2017-04-20T07:14:14.911Z,628
2017-04-20T07:15:15.546Z,620
2017-04-20T07:16:16.118Z,636
2017-04-20T07:17:16.691Z,648
2017-04-20T07:18:17.267Z,648
2017-04-20T07:19:17.853Z,648
2017-04-20T07:20:18.427Z,644
2017-04-20T07:21:19.001Z,652
2017-04-20T07:22:19.576Z,652
2017-04-20T07:23:20.150Z,660
2017-04-20T07:24:20.727Z,676
2017-04-20T07:25:21.301Z,688
2017-04-20T07:26:21.877Z,688
2017-04-20T07:27:22.454Z,676
2017-04-20T07:28:23.040Z,644
2017-04-20T07:29:23.615Z,668
2017-04-20T07:30:24.192Z,692
2017-04-20T07:31:24.765Z,704
2017-04-20T07:32:25.340Z,684
2017-04-20T07:33:25.927Z,696
2017-04-20T07:34:26.503Z,700
2017-04-20T07:35:27.080Z,616
2017-04-20T07:36:27.674Z,736
2017-04-20T07:37:28.230Z,748
2017-04-20T07:38:28.820Z,752
2017-04-20T07:39:29.394Z,740
2017-04-20T07:40:29.971Z,752
2017-04-20T07:41:30.560Z,740
2017-04-20T07:42:31.135Z,740
2017-04-20T07:43:31.710Z,756
2017-04-20T07:45:15.531Z,700
2017-04-20T07:46:16.107Z,696
2017-04-20T07:47:16.682Z,700
2017-04-20T07:48:17.257Z,712
2017-04-20T07:49:17.834Z,736
2017-04-20T07:50:18.409Z,700
2017-04-20T07:51:18.987Z,724
2017-04-20T07:52:19.560Z,712
2017-04-20T07:53:20.135Z,752
2017-04-20T07:54:20.710Z,764
2017-04-20T07:55:21.286Z,772
2017-04-20T07:56:21.862Z,756
2017-04-20T07:57:22.451Z,760
2017-04-20T07:58:23.026Z,752
2017-04-20T07:59:23.600Z,756
2017-04-20T08:00:24.177Z,748
2017-04-20T08:01:24.752Z,744
2017-04-20T08:02:25.328Z,788
2017-04-20T08:03:25.916Z,788
2017-04-20T08:04:26.490Z,712
2017-04-20T08:05:27.064Z,712
2017-04-20T08:06:27.640Z,712
2017-04-20T08:07:28.230Z,768
2017-04-20T08:08:28.804Z,740
2017-04-20T08:09:29.381Z,584
2017-04-20T08:10:29.955Z,548
2017-04-20T08:11:30.532Z,568
2017-04-20T08:12:31.106Z,544
2017-04-20T08:13:31.683Z,548
2017-04-20T08:14:32.261Z,600
2017-04-20T08:15:32.836Z,744
2017-04-20T08:16:33.412Z,764
2017-04-20T08:17:33.989Z,760
2017-04-20T08:18:34.565Z,804
2017-04-20T08:19:35.140Z,760
2017-04-20T08:20:35.715Z,748
2017-04-20T08:21:36.290Z,756
2017-04-20T08:22:36.867Z,812
2017-04-20T08:23:37.443Z,804
2017-04-20T08:24:38.019Z,808
2017-04-20T08:25:38.592Z,800
2017-04-20T08:26:39.172Z,820
2017-04-20T08:27:39.750Z,792
2017-04-20T08:28:40.320Z,816
2017-04-20T08:29:40.896Z,812
2017-04-20T08:30:41.472Z,832
2017-04-20T08:31:42.049Z,828
2017-04-20T08:32:42.636Z,824
2017-04-20T08:33:43.215Z,812
2017-04-20T08:34:43.791Z,820
2017-04-20T08:35:44.365Z,796
2017-04-20T08:36:44.956Z,764
2017-04-20T08:37:45.530Z,800
2017-04-20T08:38:46.106Z,800
2017-04-20T08:39:46.682Z,776
2017-04-20T08:40:47.258Z,788
2017-04-20T08:41:47.835Z,796
2017-04-20T08:42:48.408Z,796
2017-04-20T08:43:49.008Z,784
2017-04-20T08:44:49.584Z,800
2017-04-20T08:45:50.159Z,824
2017-04-20T08:46:50.737Z,824
2017-04-20T08:47:51.310Z,804
2017-04-20T08:48:51.885Z,796
2017-04-20T08:49:52.461Z,816
2017-04-20T08:50:53.036Z,832
2017-04-20T08:51:53.610Z,840
2017-04-20T08:52:54.232Z,848
2017-04-20T08:53:54.809Z,852
2017-04-20T08:54:55.384Z,860
2017-04-20T08:55:55.960Z,852
2017-04-20T08:56:56.534Z,848
2017-04-20T08:57:57.113Z,864
2017-04-20T08:58:57.689Z,852
2017-04-20T08:59:58.265Z,892
2017-04-20T09:00:58.840Z,892
2017-04-20T09:01:59.418Z,884
2017-04-20T09:03:00.007Z,880
2017-04-20T09:04:00.583Z,900
2017-04-20T09:05:01.161Z,892
2017-04-20T09:06:01.735Z,900
2017-04-20T09:07:02.311Z,868
2017-04-20T09:08:02.901Z,908
2017-04-20T09:09:03.478Z,872
2017-04-20T09:10:04.054Z,892
2017-04-20T09:11:04.631Z,856
2017-04-20T09:12:05.206Z,864
2017-04-20T09:13:05.788Z,908
2017-04-20T09:14:06.357Z,936
2017-04-20T09:15:06.935Z,884
2017-04-20T09:16:07.512Z,900
2017-04-20T09:17:08.088Z,924
2017-04-20T09:18:08.663Z,932
2017-04-20T09:19:09.240Z,920
2017-04-20T09:20:09.817Z,884
2017-04-20T09:21:10.395Z,884
2017-04-20T09:22:10.985Z,872
2017-04-20T09:23:11.561Z,860
2017-04-20T09:24:12.139Z,872
2017-04-20T09:25:12.726Z,864
2017-04-20T09:26:13.303Z,864
2017-04-20T09:27:13.879Z,912
2017-04-20T09:28:14.457Z,936
2017-04-20T09:29:15.033Z,948
2017-04-20T09:30:15.608Z,892
2017-04-20T09:31:16.187Z,900
2017-04-20T09:32:16.774Z,912
2017-04-20T09:33:17.351Z,916
2017-04-20T09:34:17.930Z,936
2017-04-20T09:35:18.504Z,936
2017-04-20T09:36:19.079Z,944
2017-04-20T09:37:19.658Z,876
2017-04-20T09:38:20.234Z,920
2017-04-20T09:39:20.810Z,920
2017-04-20T09:40:21.385Z,908
2017-04-20T09:41:21.974Z,936
2017-04-20T09:42:22.551Z,900
2017-04-20T09:43:23.128Z,908
2017-04-20T09:44:23.705Z,892
2017-04-20T09:45:24.298Z,884
2017-04-20T09:46:24.876Z,900
2017-04-20T09:47:25.461Z,912
2017-04-20T09:48:26.042Z,928
2017-04-20T09:49:26.618Z,956
2017-04-20T09:50:27.193Z,960
2017-04-20T09:51:27.773Z,960
2017-04-20T09:52:28.360Z,948
2017-04-20T09:53:28.949Z,944
2017-04-20T09:54:29.526Z,920
2017-04-20T09:55:30.117Z,908
2017-04-20T09:56:30.695Z,908
2017-04-20T09:57:31.273Z,904
2017-04-20T09:58:31.849Z,912
2017-04-20T09:59:32.426Z,904
2017-04-20T10:00:33.002Z,928
2017-04-20T10:01:33.580Z,908
2017-04-20T10:02:34.157Z,876
2017-04-20T10:03:34.733Z,908
2017-04-20T10:04:35.310Z,952
2017-04-20T10:05:35.888Z,924
2017-04-20T10:06:36.478Z,960
2017-04-20T10:07:37.057Z,956
2017-04-20T10:08:37.635Z,952
2017-04-20T10:09:38.211Z,964
2017-04-20T10:10:38.787Z,988
2017-04-20T10:11:39.366Z,964
2017-04-20T10:12:39.943Z,1008
2017-04-20T10:13:40.522Z,1008
2017-04-20T10:14:41.101Z,1004
2017-04-20T10:15:41.679Z,892
2017-04-20T10:16:42.257Z,880
2017-04-20T10:17:42.834Z,920
2017-04-20T10:18:43.410Z,964
2017-04-20T10:19:43.999Z,912
2017-04-20T10:20:44.575Z,968
2017-04-20T10:21:45.153Z,976
2017-04-20T10:22:45.732Z,956
2017-04-20T10:23:46.308Z,892
2017-04-20T10:24:46.885Z,900
2017-04-20T10:25:47.463Z,952
2017-04-20T10:26:48.041Z,972
2017-04-20T10:27:48.619Z,944
2017-04-20T10:28:49.197Z,872
2017-04-20T10:29:49.774Z,932
2017-04-20T10:30:50.351Z,936
2017-04-20T10:31:50.929Z,832
2017-04-20T10:32:51.505Z,844
2017-04-20T10:33:52.081Z,800
2017-04-20T10:34:52.658Z,952
2017-04-20T10:35:53.236Z,968
2017-04-20T10:36:53.812Z,916
2017-04-20T10:37:54.389Z,964
2017-04-20T10:38:54.979Z,964
2017-04-20T10:39:55.556Z,952
2017-04-20T10:40:56.134Z,956
2017-04-20T10:41:56.713Z,980
2017-04-20T10:42:57.302Z,992
2017-04-20T10:43:57.879Z,968
2017-04-20T10:44:58.469Z,996
2017-04-20T10:45:59.049Z,1000
2017-04-20T10:46:59.626Z,992
2017-04-20T10:48:00.202Z,1000
2017-04-20T10:49:00.778Z,980
2017-04-20T10:50:01.370Z,1004
2017-04-20T10:51:01.961Z,996
2017-04-20T10:52:02.531Z,1000
2017-04-20T10:53:03.107Z,1008
2017-04-20T10:54:03.681Z,1008
2017-04-20T10:55:04.257Z,1004
2017-04-20T10:56:04.833Z,988
2017-04-20T10:57:05.407Z,980
2017-04-20T10:58:05.996Z,976
2017-04-20T10:59:06.569Z,980
2017-04-20T11:00:07.144Z,992
2017-04-20T11:01:07.718Z,996
2017-04-20T11:02:08.294Z,988
2017-04-20T11:03:08.869Z,1000
2017-04-20T11:04:09.444Z,996
2017-04-20T11:05:10.020Z,992
2017-04-20T11:06:10.594Z,996
2017-04-20T11:07:11.170Z,988
2017-04-20T11:08:11.745Z,1004
2017-04-20T11:09:12.373Z,1008
2017-04-20T11:10:12.950Z,1016
2017-04-20T11:11:13.528Z,1020
2017-04-20T11:12:14.102Z,1008
2017-04-20T11:13:14.677Z,1012
2017-04-20T11:14:15.254Z,1012
2017-04-20T11:15:15.832Z,1012
2017-04-20T11:16:16.406Z,1016
2017-04-20T11:17:16.983Z,1020
2017-04-20T11:18:17.560Z,1016
2017-04-20T11:19:18.134Z,1024
2017-04-20T11:20:18.725Z,1016
2017-04-20T11:21:19.301Z,996
2017-04-20T11:22:19.878Z,1012
2017-04-20T11:23:20.468Z,1020
2017-04-20T11:24:21.059Z,1024
2017-04-20T11:25:21.649Z,1024
2017-04-20T11:26:22.225Z,1032
2017-04-20T11:27:22.882Z,1028
2017-04-20T11:28:23.460Z,1032
2017-04-20T11:29:24.035Z,1028
2017-04-20T11:30:24.610Z,1028
2017-04-20T11:31:25.188Z,1028
2017-04-20T11:32:25.765Z,1036
2017-04-20T11:33:26.340Z,1028
2017-04-20T11:34:26.916Z,1028
2017-04-20T11:35:27.495Z,1012
2017-04-20T11:36:28.071Z,1020
2017-04-20T11:37:28.652Z,1024
2017-04-20T11:38:29.227Z,1040
2017-04-20T11:39:29.803Z,1052
2017-04-20T11:40:30.388Z,1048
2017-04-20T11:41:30.959Z,1044
2017-04-20T11:42:31.535Z,1040
2017-04-20T11:43:32.112Z,1036
2017-04-20T11:44:32.688Z,1048
2017-04-20T11:45:33.280Z,1052
2017-04-20T11:46:33.856Z,1056
2017-04-20T11:47:34.433Z,1056
2017-04-20T11:48:35.010Z,1056
2017-04-20T11:49:35.586Z,1048
2017-04-20T11:50:36.165Z,1044
2017-04-20T11:51:36.741Z,1048
2017-04-20T11:52:37.316Z,1056
2017-04-20T11:53:37.894Z,1060
2017-04-20T11:54:38.471Z,1064
2017-04-20T11:55:39.045Z,1068
2017-04-20T11:56:39.622Z,1068
2017-04-20T11:57:40.201Z,1080
2017-04-20T11:58:40.775Z,1068
2017-04-20T11:59:41.353Z,1060
2017-04-20T12:00:41.931Z,1048
2017-04-20T12:01:42.506Z,1060
2017-04-20T12:02:43.091Z,1056
2017-04-20T12:03:43.660Z,1048
2017-04-20T12:04:44.234Z,1064
2017-04-20T12:05:44.809Z,1060
2017-04-20T12:06:45.388Z,1076
2017-04-20T12:07:45.963Z,1072
2017-04-20T12:08:46.540Z,1080
2017-04-20T12:09:47.117Z,1080
2017-04-20T12:10:47.690Z,1084
2017-04-20T12:11:48.267Z,1092
2017-04-20T12:12:48.845Z,1100
2017-04-20T12:13:49.420Z,1100
2017-04-20T12:14:49.997Z,1108
2017-04-20T12:15:50.574Z,1104
2017-04-20T12:16:51.150Z,1116
2017-04-20T12:17:51.726Z,1120
2017-04-20T12:18:52.303Z,1116
2017-04-20T12:19:52.880Z,1124
2017-04-20T12:20:53.470Z,1128
2017-04-20T12:21:54.048Z,1136
2017-04-20T12:22:54.626Z,1136
2017-04-20T12:23:55.201Z,1136
2017-04-20T12:24:55.781Z,1136
2017-04-20T12:25:56.355Z,1144
2017-04-20T12:26:56.946Z,1136
2017-04-20T12:27:57.523Z,1144
2017-04-20T12:28:58.101Z,1132
2017-04-20T12:29:58.692Z,1124
2017-04-20T12:30:59.269Z,1116
2017-04-20T12:31:59.846Z,1140
2017-04-20T12:33:00.422Z,1152
2017-04-20T12:34:01.000Z,1160
2017-04-20T12:35:01.590Z,1136
2017-04-20T12:36:02.172Z,1148
2017-04-20T12:37:02.745Z,1152
2017-04-20T12:38:03.322Z,1160
2017-04-20T12:39:03.900Z,1168
2017-04-20T12:40:04.480Z,1184
2017-04-20T12:41:05.055Z,1188
2017-04-20T12:42:05.633Z,1196
2017-04-20T12:43:06.222Z,1196
2017-04-20T12:44:06.799Z,1200
2017-04-20T12:45:07.375Z,1224
2017-04-20T12:46:07.953Z,1216
2017-04-20T12:47:08.549Z,1220
2017-04-20T12:48:09.132Z,1232
2017-04-20T12:49:09.711Z,1228
2017-04-20T12:50:10.287Z,1232
2017-04-20T12:51:10.863Z,1188
2017-04-20T12:52:11.441Z,1232
2017-04-20T12:53:12.017Z,1240
2017-04-20T12:54:12.593Z,1236
2017-04-20T12:55:13.172Z,1232
2017-04-20T12:56:13.747Z,1240
2017-04-20T12:57:14.324Z,1244
2017-04-20T12:58:14.901Z,1256
2017-04-20T12:59:15.476Z,1260
2017-04-20T13:00:16.053Z,1260
2017-04-20T13:01:16.648Z,1264
2017-04-20T13:02:17.219Z,1272
2017-04-20T13:03:17.797Z,1284
2017-04-20T13:04:18.376Z,1288
2017-04-20T13:05:18.954Z,1288
2017-04-20T13:06:19.532Z,1296
2017-04-20T13:07:20.107Z,1292
2017-04-20T13:08:20.686Z,1300
2017-04-20T13:09:21.266Z,1308
2017-04-20T13:10:21.844Z,1304
2017-04-20T13:11:22.416Z,1304
2017-04-20T13:12:22.993Z,1324
2017-04-20T13:13:23.571Z,1324
2017-04-20T13:14:24.148Z,1328
2017-04-20T13:15:24.725Z,1340
2017-04-20T13:16:25.302Z,1340
2017-04-20T13:17:25.879Z,1352
2017-04-20T13:18:26.455Z,1364
2017-04-20T13:19:27.034Z,1372
2017-04-20T13:20:27.615Z,1356
2017-04-20T13:21:28.189Z,1392
2017-04-20T13:22:28.772Z,1392
2017-04-20T13:23:29.359Z,1384
2017-04-20T13:24:29.936Z,1364
2017-04-20T13:25:30.513Z,1400
2017-04-20T13:26:31.091Z,1392
2017-04-20T13:27:31.669Z,1404
2017-04-20T13:28:32.246Z,1408
2017-04-20T13:29:32.826Z,1408
2017-04-20T13:30:33.402Z,1396
2017-04-20T13:31:33.979Z,1412
2017-04-20T13:32:34.556Z,1416
2017-04-20T13:33:35.132Z,1428
2017-04-20T13:34:35.709Z,1436
2017-04-20T13:35:36.287Z,1452
2017-04-20T13:36:36.863Z,1460
2017-04-20T13:37:37.440Z,1476
2017-04-20T13:38:38.019Z,1488
2017-04-20T13:39:38.597Z,1492
2017-04-20T13:40:39.186Z,1500
2017-04-20T13:41:39.762Z,1500
2017-04-20T13:42:40.340Z,1504
2017-04-20T13:43:40.918Z,1500
2017-04-20T13:44:41.495Z,1520
2017-04-20T13:45:42.075Z,1520
2017-04-20T13:46:42.649Z,1528
2017-04-20T13:47:43.226Z,1516
2017-04-20T13:48:43.804Z,1528
2017-04-20T13:49:44.381Z,1532
2017-04-20T13:50:44.958Z,1540
2017-04-20T13:51:45.625Z,1556
2017-04-20T13:52:46.200Z,1560
2017-04-20T13:53:46.778Z,1564
2017-04-20T13:54:47.356Z,1560
2017-04-20T13:55:47.934Z,1572
2017-04-20T13:56:48.510Z,1568
2017-04-20T13:57:49.088Z,1580
2017-04-20T13:58:49.665Z,1588
2017-04-20T13:59:50.243Z,1592
2017-04-20T14:00:50.820Z,1604
2017-04-20T14:01:51.398Z,1612
2017-04-20T14:02:51.973Z,1616
2017-04-20T14:03:52.550Z,1616
2017-04-20T14:04:53.127Z,1616
2017-04-20T14:05:53.707Z,1624
2017-04-20T14:06:54.283Z,1640